Etusivu
METAR-TAF:

METAR-TAF

Lentoasemat :

Hattiesburg-Laurel Regional Airport

Hattiesburg / Laurel, Mississippi, Yhdysvallat

Leveyspiiri: 31-28N, Pituuspiiri: 089-20W, korkeus merenpinnasta: 91 m

Tämänhetkinen sää

Tämä raportti tehtiin 26 minuuttia sitten, kello 18.56 UTC
Tuuli 11 kn pohjoisesta puuskistuen 15 kn:hen
Lämpötila 17°C
Kosteus 20%
Ilmanpaine 1026 hPa
Näkyvyys: 16.1 km
selkeää

METAR: KPIB 191856Z AUTO 01011G15KT 10SM CLR 17/M06 A3030 RMK AO2 SLP260 T01671056

Aika: 14:22 (19:22 UTC)

Sääennuste

Tämä raportti tehtiin 2 tuntia ja 2 minuuttia sitten, kello 17.20 UTC
Ennuste voimassa 19. päivästä klo 18 UTC - 20. päivään klo 18 UTC
Tuuli 8 kn pohjoisesta/koillisesta
Näkyvyys: 10 km
Muutamia pilviä 25000 ft:n korkeudessa

TAF: KPIB 191720Z 1918/2018 03008KT P6SM FEW250

Säähavainnot ja -ennusteet yli 4000 lentoasemalta (METAR- ja TAF-raportit).

Käytössä olevat sääasemat on merkitty karttaan keltaisilla ja punaisilla pisteillä.

Aseta hiiri pisteen päälle nähdäksesi sääaseman nimen.

Klikkaa sitten nähdäksesi säähavainnot ja -ennusteet.

Kartan vaihtaminen: klikkaa mustalla rastilla varustettuja vihreitä pisteitä, niin voit zoomata sisään; viivalla varustettua vihreää pistettä, niin voit zoomata ulos tai vihreitä nuolia, niin pääset viereisille kartoille.


METAR-TAF: